Time,TemperatureF,DewpointF,PressureIn,WindDirection,WindDirectionDegrees,WindSpeedMPH,WindSpeedGustMPH,Humidity,HourlyPrecipIn,Conditions,Clouds,dailyrainin,SoftwareType,DateUTC
2013-03-07 00:00:00,32.5,28.8,30.33,North,0,0.8,4.6,86,0.00,,,0.00,WUHU216HW,2013-03-07 05:00:00,
2013-03-07 00:05:00,32.7,28.9,30.32,North,0,4.2,4.6,86,0.00,,,0.00,WUHU216HW,2013-03-07 05:05:00,
2013-03-07 00:10:00,32.5,28.8,30.32,NNW,338,0.0,4.2,86,0.00,,,0.00,WUHU216HW,2013-03-07 05:10:00,
2013-03-07 00:15:00,32.7,28.9,30.32,NNW,338,0.0,4.9,86,0.00,,,0.00,WUHU216HW,2013-03-07 05:15:00,
2013-03-07 00:20:00,32.5,28.8,30.32,North,0,2.2,4.9,86,0.00,,,0.00,WUHU216HW,2013-03-07 05:20:00,
2013-03-07 00:25:00,32.7,28.9,30.32,NNW,338,0.0,2.9,86,0.00,,,0.00,WUHU216HW,2013-03-07 05:25:00,
2013-03-07 00:30:00,32.5,28.8,30.32,North,0,2.2,3.1,86,0.00,,,0.00,WUHU216HW,2013-03-07 05:30:00,
2013-03-07 00:35:00,32.7,28.9,30.32,North,0,2.0,3.1,86,0.00,,,0.00,WUHU216HW,2013-03-07 05:35:00,
2013-03-07 00:40:00,32.7,28.9,30.31,North,0,2.4,3.3,86,0.00,,,0.00,WUHU216HW,2013-03-07 05:40:00,
2013-03-07 00:45:00,32.7,28.9,30.32,North,0,4.0,5.8,86,0.00,,,0.00,WUHU216HW,2013-03-07 05:45:00,
2013-03-07 00:50:00,32.7,28.9,30.31,NNW,338,3.8,5.8,86,0.00,,,0.00,WUHU216HW,2013-03-07 05:50:00,
2013-03-07 00:55:00,32.7,28.9,30.32,NNE,23,2.9,4.0,86,0.00,,,0.00,WUHU216HW,2013-03-07 05:55:00,
2013-03-07 01:00:00,32.7,28.9,30.32,North,0,2.6,3.8,86,0.00,,,0.00,WUHU216HW,2013-03-07 06:00:00,
2013-03-07 01:05:00,32.7,28.9,30.31,North,0,1.5,2.6,86,0.00,,,0.00,WUHU216HW,2013-03-07 06:05:00,
2013-03-07 01:10:00,32.9,29.1,30.31,NNW,338,5.5,5.5,86,0.00,,,0.00,WUHU216HW,2013-03-07 06:10:00,
2013-03-07 01:15:00,32.9,29.1,30.32,NNW,338,6.2,13.8,86,0.00,,,0.00,WUHU216HW,2013-03-07 06:15:00,
2013-03-07 01:20:00,32.9,29.1,30.31,North,0,0.8,13.8,86,0.00,,,0.00,WUHU216HW,2013-03-07 06:20:00,
2013-03-07 01:25:00,32.9,29.1,30.31,NNW,338,4.2,6.2,86,0.00,,,0.00,WUHU216HW,2013-03-07 06:25:00,
2013-03-07 01:30:00,32.9,29.1,30.31,NNW,338,4.4,4.4,86,0.00,,,0.00,WUHU216HW,2013-03-07 06:30:00,
2013-03-07 01:35:00,32.9,29.1,30.31,NNW,338,7.1,7.1,86,0.00,,,0.00,WUHU216HW,2013-03-07 06:35:00,
2013-03-07 01:40:00,32.9,28.8,30.31,NNW,338,3.3,7.1,85,0.00,,,0.00,WUHU216HW,2013-03-07 06:40:00,
2013-03-07 01:45:00,32.9,28.8,30.31,NNW,338,3.8,7.1,85,0.00,,,0.00,WUHU216HW,2013-03-07 06:45:00,
2013-03-07 01:50:00,32.9,28.8,30.32,NW,315,5.5,6.2,85,0.00,,,0.00,WUHU216HW,2013-03-07 06:50:00,
2013-03-07 01:55:00,32.9,28.8,30.31,NNW,338,6.4,6.4,85,0.00,,,0.00,WUHU216HW,2013-03-07 06:55:00,
2013-03-07 02:00:00,32.9,28.8,30.32,North,0,5.1,6.4,85,0.00,,,0.00,WUHU216HW,2013-03-07 07:00:00,
2013-03-07 02:05:00,32.9,28.8,30.31,NNW,338,5.1,8.2,85,0.00,,,0.00,WUHU216HW,2013-03-07 07:05:00,
2013-03-07 02:10:00,32.9,28.8,30.32,North,0,2.4,8.2,85,0.00,,,0.00,WUHU216HW,2013-03-07 07:10:00,
2013-03-07 02:15:00,33.0,29.0,30.32,NNE,23,0.6,5.1,85,0.00,,,0.00,WUHU216HW,2013-03-07 07:15:00,
2013-03-07 02:20:00,32.9,28.8,30.32,North,0,1.7,5.1,85,0.00,,,0.00,WUHU216HW,2013-03-07 07:20:00,
2013-03-07 02:25:00,33.0,29.0,30.32,North,0,3.5,4.6,85,0.00,,,0.00,WUHU216HW,2013-03-07 07:25:00,
2013-03-07 02:30:00,33.0,29.0,30.32,NNW,338,0.0,5.1,85,0.00,,,0.00,WUHU216HW,2013-03-07 07:30:00,
2013-03-07 02:35:00,33.0,29.0,30.32,North,0,7.1,7.1,85,0.00,,,0.00,WUHU216HW,2013-03-07 07:35:00,
2013-03-07 02:40:00,33.0,29.0,30.33,NNW,338,5.5,7.1,85,0.00,,,0.00,WUHU216HW,2013-03-07 07:40:00,
2013-03-07 02:45:00,33.0,29.0,30.32,NNW,338,2.2,7.1,85,0.00,,,0.00,WUHU216HW,2013-03-07 07:45:00,
2013-03-07 02:50:00,33.0,29.0,30.32,NNW,338,2.6,10.0,85,0.00,,,0.00,WUHU216HW,2013-03-07 07:50:00,
2013-03-07 02:55:00,33.0,29.0,30.32,North,0,10.2,10.2,85,0.00,,,0.00,WUHU216HW,2013-03-07 07:55:00,
2013-03-07 03:00:00,33.0,29.0,30.32,NNW,338,6.9,10.5,85,0.00,,,0.00,WUHU216HW,2013-03-07 08:00:00,
2013-03-07 03:05:00,33.0,29.0,30.32,North,0,3.8,10.5,85,0.00,,,0.00,WUHU216HW,2013-03-07 08:05:00,
2013-03-07 03:10:00,33.0,29.0,30.32,NNW,338,6.0,7.6,85,0.00,,,0.00,WUHU216HW,2013-03-07 08:10:00,
2013-03-07 03:15:00,33.0,29.0,30.32,NNW,338,5.1,7.3,85,0.00,,,0.00,WUHU216HW,2013-03-07 08:15:00,
2013-03-07 03:20:00,33.0,29.0,30.32,NNW,338,4.6,5.1,85,0.00,,,0.00,WUHU216HW,2013-03-07 08:20:00,
2013-03-07 03:26:00,33.0,29.0,30.32,NNW,338,4.6,5.1,85,0.00,,,0.00,WUHU216HW,2013-03-07 08:26:00,
2013-03-07 03:31:00,33.0,29.0,30.32,NNW,338,4.6,5.8,85,0.00,,,0.00,WUHU216HW,2013-03-07 08:31:00,
2013-03-07 03:36:00,33.0,29.0,30.32,NNW,338,4.9,5.8,85,0.00,,,0.00,WUHU216HW,2013-03-07 08:36:00,
2013-03-07 03:41:00,32.9,28.8,30.32,North,0,0.0,5.1,85,0.00,,,0.00,WUHU216HW,2013-03-07 08:41:00,
2013-03-07 03:46:00,32.9,28.5,30.33,NNW,338,3.8,5.5,84,0.00,,,0.00,WUHU216HW,2013-03-07 08:46:00,
2013-03-07 03:51:00,32.7,28.4,30.33,NNW,338,3.5,5.5,84,0.00,,,0.00,WUHU216HW,2013-03-07 08:51:00,
2013-03-07 03:56:00,32.7,28.4,30.33,NNW,338,5.8,6.0,84,0.00,,,0.00,WUHU216HW,2013-03-07 08:56:00,
2013-03-07 04:01:00,32.7,28.4,30.34,NNW,338,6.0,6.0,84,0.00,,,0.00,WUHU216HW,2013-03-07 09:01:00,
2013-03-07 04:06:00,32.7,28.6,30.34,NNW,338,4.4,8.2,85,0.00,,,0.00,WUHU216HW,2013-03-07 09:06:00,
2013-03-07 04:11:00,32.5,28.5,30.34,NNW,338,2.0,8.2,85,0.00,,,0.00,WUHU216HW,2013-03-07 09:11:00,
2013-03-07 04:16:00,32.5,28.5,30.34,North,0,5.8,5.8,85,0.00,,,0.00,WUHU216HW,2013-03-07 09:16:00,
2013-03-07 04:21:00,32.5,28.5,30.34,North,0,4.0,5.8,85,0.00,,,0.00,WUHU216HW,2013-03-07 09:21:00,
2013-03-07 04:26:00,32.3,28.3,30.34,NNW,338,1.3,4.0,85,0.00,,,0.00,WUHU216HW,2013-03-07 09:26:00,
2013-03-07 04:31:00,32.3,28.3,30.34,NNW,338,2.9,3.5,85,0.00,,,0.00,WUHU216HW,2013-03-07 09:31:00,
2013-03-07 04:36:00,32.3,28.3,30.34,North,0,2.9,4.0,85,0.00,,,0.00,WUHU216HW,2013-03-07 09:36:00,
2013-03-07 04:41:00,32.3,28.3,30.34,North,0,1.3,4.0,85,0.00,,,0.00,WUHU216HW,2013-03-07 09:41:00,
2013-03-07 04:46:00,32.3,28.3,30.34,North,0,3.5,6.0,85,0.00,,,0.00,WUHU216HW,2013-03-07 09:46:00,
2013-03-07 04:51:00,32.3,28.3,30.35,North,0,1.7,6.0,85,0.00,,,0.00,WUHU216HW,2013-03-07 09:51:00,
2013-03-07 04:56:00,32.1,28.2,30.34,NNW,338,6.2,6.2,85,0.00,,,0.00,WUHU216HW,2013-03-07 09:56:00,
2013-03-07 05:01:00,32.1,28.2,30.34,North,0,4.2,6.2,85,0.00,,,0.00,WUHU216HW,2013-03-07 10:01:00,
2013-03-07 05:06:00,32.1,28.4,30.34,NNW,338,2.6,6.2,86,0.00,,,0.00,WUHU216HW,2013-03-07 10:06:00,
2013-03-07 05:11:00,32.1,28.4,30.35,NNW,338,3.5,4.2,86,0.00,,,0.00,WUHU216HW,2013-03-07 10:11:00,
2013-03-07 05:16:00,32.1,28.4,30.34,NNW,338,0.0,3.5,86,0.00,,,0.00,WUHU216HW,2013-03-07 10:16:00,
2013-03-07 05:21:00,32.0,28.3,30.35,North,0,3.5,5.1,86,0.00,,,0.00,WUHU216HW,2013-03-07 10:21:00,
2013-03-07 05:26:00,31.8,28.1,30.35,North,0,3.1,5.1,86,0.00,,,0.00,WUHU216HW,2013-03-07 10:26:00,
2013-03-07 05:31:00,31.8,28.1,30.34,NNW,338,3.1,3.1,86,0.00,,,0.00,WUHU216HW,2013-03-07 10:31:00,
2013-03-07 05:36:00,31.8,28.1,30.35,NNW,338,2.4,3.1,86,0.00,,,0.00,WUHU216HW,2013-03-07 10:36:00,
2013-03-07 05:41:00,31.8,28.1,30.35,NNW,338,0.0,3.1,86,0.00,,,0.00,WUHU216HW,2013-03-07 10:41:00,
2013-03-07 05:46:00,31.8,28.1,30.35,North,0,0.0,3.1,86,0.00,,,0.00,WUHU216HW,2013-03-07 10:46:00,
2013-03-07 05:51:00,31.8,28.1,30.35,North,0,0.8,6.9,86,0.00,,,0.00,WUHU216HW,2013-03-07 10:51:00,
2013-03-07 05:56:00,31.8,28.1,30.34,North,0,0.0,6.9,86,0.00,,,0.00,WUHU216HW,2013-03-07 10:56:00,
2013-03-07 06:01:00,31.8,28.1,30.35,North,0,1.7,2.4,86,0.00,,,0.00,WUHU216HW,2013-03-07 11:01:00,
2013-03-07 06:06:00,31.8,28.1,30.35,NNW,338,2.0,2.2,86,0.00,,,0.00,WUHU216HW,2013-03-07 11:06:00,
2013-03-07 06:11:00,31.8,28.1,30.35,NNW,338,0.8,2.9,86,0.00,,,0.00,WUHU216HW,2013-03-07 11:11:00,
2013-03-07 06:16:00,31.8,28.1,30.35,NNW,338,0.0,2.9,86,0.00,,,0.00,WUHU216HW,2013-03-07 11:16:00,
2013-03-07 06:21:00,31.8,28.1,30.35,NNW,338,0.0,0.8,86,0.00,,,0.00,WUHU216HW,2013-03-07 11:21:00,
2013-03-07 06:26:00,31.8,28.1,30.34,North,0,0.0,2.9,86,0.00,,,0.00,WUHU216HW,2013-03-07 11:26:00,
2013-03-07 06:31:00,31.8,28.1,30.35,North,0,0.0,3.3,86,0.00,,,0.00,WUHU216HW,2013-03-07 11:31:00,
2013-03-07 06:36:00,31.8,28.1,30.35,North,0,0.8,3.5,86,0.00,,,0.00,WUHU216HW,2013-03-07 11:36:00,
2013-03-07 06:41:00,31.8,28.1,30.35,North,0,0.0,3.5,86,0.00,,,0.00,WUHU216HW,2013-03-07 11:41:00,
2013-03-07 06:46:00,31.8,28.1,30.35,North,0,0.8,0.8,86,0.00,,,0.00,WUHU216HW,2013-03-07 11:46:00,
2013-03-07 06:51:00,31.8,28.1,30.35,NE,45,0.0,1.5,86,0.00,,,0.00,WUHU216HW,2013-03-07 11:51:00,
2013-03-07 06:56:00,31.8,28.1,30.35,North,0,2.9,2.9,86,0.00,,,0.00,WUHU216HW,2013-03-07 11:56:00,
2013-03-07 07:01:00,31.8,28.1,30.36,WNW,293,0.0,2.9,86,0.00,,,0.00,WUHU216HW,2013-03-07 12:01:00,
2013-03-07 07:06:00,31.8,28.1,30.36,NNW,338,1.7,2.9,86,0.00,,,0.00,WUHU216HW,2013-03-07 12:06:00,
2013-03-07 07:11:00,31.8,28.1,30.36,NNW,338,0.0,2.9,86,0.00,,,0.00,WUHU216HW,2013-03-07 12:11:00,
2013-03-07 07:16:00,31.8,28.1,30.37,NNW,338,0.8,2.9,86,0.00,,,0.00,WUHU216HW,2013-03-07 12:16:00,
2013-03-07 07:21:00,31.8,28.1,30.37,WNW,293,0.8,1.1,86,0.00,,,0.00,WUHU216HW,2013-03-07 12:21:00,
2013-03-07 07:26:00,31.8,28.1,30.38,NW,315,0.6,1.1,86,0.00,,,0.00,WUHU216HW,2013-03-07 12:26:00,
2013-03-07 07:31:00,31.8,28.1,30.38,WNW,293,0.0,3.3,86,0.00,,,0.00,WUHU216HW,2013-03-07 12:31:00,
2013-03-07 07:36:00,31.8,28.1,30.39,NW,315,0.0,3.3,86,0.00,,,0.00,WUHU216HW,2013-03-07 12:36:00,
2013-03-07 07:41:00,31.8,28.1,30.39,NW,315,0.6,2.9,86,0.00,,,0.00,WUHU216HW,2013-03-07 12:41:00,
2013-03-07 07:46:00,31.8,28.1,30.39,North,0,2.2,2.9,86,0.00,,,0.00,WUHU216HW,2013-03-07 12:46:00,
2013-03-07 07:51:00,32.1,28.4,30.40,NNW,338,0.0,2.2,86,0.00,,,0.00,WUHU216HW,2013-03-07 12:51:00,
2013-03-07 07:56:00,32.1,28.4,30.41,NNW,338,5.8,7.1,86,0.00,,,0.00,WUHU216HW,2013-03-07 12:56:00,
2013-03-07 08:01:00,32.5,29.1,30.41,NNW,338,3.8,7.1,87,0.00,,,0.00,WUHU216HW,2013-03-07 13:01:00,
2013-03-07 08:06:00,32.5,29.1,30.41,NNW,338,2.2,5.8,87,0.00,,,0.00,WUHU216HW,2013-03-07 13:06:00,
2013-03-07 08:11:00,32.7,28.9,30.41,NW,315,1.1,3.8,86,0.00,,,0.00,WUHU216HW,2013-03-07 13:11:00,
2013-03-07 08:16:00,32.9,29.1,30.42,North,0,0.8,1.7,86,0.00,,,0.00,WUHU216HW,2013-03-07 13:16:00,
2013-03-07 08:21:00,33.0,29.3,30.42,NNW,338,4.0,4.0,86,0.00,,,0.00,WUHU216HW,2013-03-07 13:21:00,
2013-03-07 08:26:00,33.2,29.4,30.42,North,0,3.1,4.4,86,0.00,,,0.00,WUHU216HW,2013-03-07 13:26:00,
2013-03-07 08:31:00,33.4,29.6,30.42,NNW,338,5.1,5.1,86,0.00,,,0.00,WUHU216HW,2013-03-07 13:31:00,
2013-03-07 08:36:00,33.6,29.7,30.43,NNW,338,1.3,5.1,86,0.00,,,0.00,WUHU216HW,2013-03-07 13:36:00,
2013-03-07 08:41:00,33.6,29.7,30.42,NNW,338,0.8,5.1,86,0.00,,,0.00,WUHU216HW,2013-03-07 13:41:00,
2013-03-07 08:46:00,33.9,30.1,30.43,NNW,338,0.0,2.6,86,0.00,,,0.00,WUHU216HW,2013-03-07 13:46:00,
2013-03-07 08:51:00,34.3,30.4,30.43,North,0,1.3,1.5,86,0.00,,,0.00,WUHU216HW,2013-03-07 13:51:00,
2013-03-07 08:56:00,34.3,30.2,30.44,NNW,338,0.0,4.6,85,0.00,,,0.00,WUHU216HW,2013-03-07 13:56:00,
2013-03-07 09:01:00,34.5,30.3,30.43,NNW,338,1.1,4.6,85,0.00,,,0.00,WUHU216HW,2013-03-07 14:01:00,
2013-03-07 09:06:00,34.7,30.5,30.44,NNW,338,4.9,4.9,85,0.00,,,0.00,WUHU216HW,2013-03-07 14:06:00,
2013-03-07 09:11:00,34.7,30.2,30.44,North,0,0.0,4.9,84,0.00,,,0.00,WUHU216HW,2013-03-07 14:11:00,
2013-03-07 09:16:00,34.5,30.0,30.44,NNW,338,3.1,3.1,84,0.00,,,0.00,WUHU216HW,2013-03-07 14:16:00,
2013-03-07 09:21:00,34.5,30.0,30.45,NNE,23,1.1,3.1,84,0.00,,,0.00,WUHU216HW,2013-03-07 14:21:00,
2013-03-07 09:26:00,34.7,29.9,30.45,North,0,1.5,3.1,83,0.00,,,0.00,WUHU216HW,2013-03-07 14:26:00,
2013-03-07 09:31:00,34.7,29.9,30.45,North,0,6.2,6.2,83,0.00,,,0.00,WUHU216HW,2013-03-07 14:31:00,
2013-03-07 09:36:00,34.8,30.1,30.45,North,0,0.0,6.2,83,0.00,,,0.00,WUHU216HW,2013-03-07 14:36:00,
2013-03-07 09:41:00,35.2,30.5,30.46,NNW,338,4.6,4.6,83,0.00,,,0.00,WUHU216HW,2013-03-07 14:41:00,
2013-03-07 09:46:00,35.4,30.7,30.46,NNW,338,0.6,4.6,83,0.00,,,0.00,WUHU216HW,2013-03-07 14:46:00,
2013-03-07 09:51:00,35.7,30.7,30.46,NNW,338,0.6,4.6,82,0.00,,,0.00,WUHU216HW,2013-03-07 14:51:00,
2013-03-07 09:56:00,36.1,31.1,30.46,North,0,1.7,1.7,82,0.00,,,0.00,WUHU216HW,2013-03-07 14:56:00,
2013-03-07 10:01:00,36.3,31.0,30.46,NE,45,0.0,1.7,81,0.00,,,0.00,WUHU216HW,2013-03-07 15:01:00,
2013-03-07 10:06:00,36.8,31.5,30.47,NE,45,0.0,1.7,81,0.00,,,0.00,WUHU216HW,2013-03-07 15:06:00,
2013-03-07 10:11:00,37.2,31.6,30.46,North,0,2.4,5.8,80,0.00,,,0.00,WUHU216HW,2013-03-07 15:11:00,
2013-03-07 10:16:00,37.5,31.6,30.46,North,0,0.0,5.8,79,0.00,,,0.00,WUHU216HW,2013-03-07 15:16:00,
2013-03-07 10:21:00,37.9,32.0,30.46,North,0,1.7,2.4,79,0.00,,,0.00,WUHU216HW,2013-03-07 15:21:00,
2013-03-07 10:26:00,38.3,32.0,30.46,NNW,338,0.0,1.7,78,0.00,,,0.00,WUHU216HW,2013-03-07 15:26:00,
2013-03-07 10:31:00,38.8,32.2,30.47,NNW,338,4.6,4.6,77,0.00,,,0.00,WUHU216HW,2013-03-07 15:31:00,
2013-03-07 10:36:00,39.0,32.0,30.47,North,0,5.3,6.0,76,0.00,,,0.00,WUHU216HW,2013-03-07 15:36:00,
2013-03-07 10:41:00,39.3,32.0,30.47,North,0,3.1,6.0,75,0.00,,,0.00,WUHU216HW,2013-03-07 15:41:00,
2013-03-07 10:47:00,39.3,32.0,30.47,NNE,23,0.0,5.3,75,0.00,,,0.00,WUHU216HW,2013-03-07 15:47:00,
2013-03-07 10:52:00,39.3,31.7,30.47,NE,45,0.0,7.1,74,0.00,,,0.00,WUHU216HW,2013-03-07 15:52:00,
2013-03-07 10:57:00,39.5,31.9,30.46,North,0,8.9,8.9,74,0.00,,,0.00,WUHU216HW,2013-03-07 15:57:00,
2013-03-07 11:02:00,39.7,31.5,30.47,North,0,1.3,8.9,73,0.00,,,0.00,WUHU216HW,2013-03-07 16:02:00,
2013-03-07 11:07:00,39.7,31.7,30.47,North,0,0.8,8.9,73,0.00,,,0.00,WUHU216HW,2013-03-07 16:07:00,
2013-03-07 11:12:00,40.1,31.7,30.46,North,0,1.1,6.4,72,0.00,,,0.00,WUHU216HW,2013-03-07 16:12:00,
2013-03-07 11:17:00,40.2,31.9,30.47,NNW,338,0.0,6.4,72,0.00,,,0.00,WUHU216HW,2013-03-07 16:17:00,
2013-03-07 11:22:00,40.8,32.4,30.47,NE,45,0.0,6.0,72,0.00,,,0.00,WUHU216HW,2013-03-07 16:22:00,
2013-03-07 11:27:00,41.1,32.5,30.47,NW,315,3.1,3.1,71,0.00,,,0.00,WUHU216HW,2013-03-07 16:27:00,
2013-03-07 11:32:00,41.1,32.3,30.47,NW,315,4.4,8.9,70,0.00,,,0.00,WUHU216HW,2013-03-07 16:32:00,
2013-03-07 11:37:00,41.1,31.7,30.47,NW,315,2.0,8.9,69,0.00,,,0.00,WUHU216HW,2013-03-07 16:37:00,
2013-03-07 11:42:00,41.5,32.1,30.47,NNW,338,3.8,5.5,69,0.00,,,0.00,WUHU216HW,2013-03-07 16:42:00,
2013-03-07 11:47:00,42.4,33.0,30.47,NNW,338,4.9,5.5,69,0.00,,,0.00,WUHU216HW,2013-03-07 16:47:00,
2013-03-07 11:52:00,42.6,33.2,30.48,NNW,338,4.2,8.9,69,0.00,,,0.00,WUHU216HW,2013-03-07 16:52:00,
2013-03-07 11:57:00,42.8,33.0,30.47,NNW,338,0.0,8.9,68,0.00,,,0.00,WUHU216HW,2013-03-07 16:57:00,
2013-03-07 12:02:00,43.7,33.8,30.47,NW,315,8.0,8.0,68,0.00,,,0.00,WUHU216HW,2013-03-07 17:02:00,
2013-03-07 12:07:00,45.1,34.4,30.47,NNW,338,7.3,8.0,66,0.00,,,0.00,WUHU216HW,2013-03-07 17:07:00,
2013-03-07 12:12:00,45.6,34.5,30.47,WNW,293,4.0,8.0,65,0.00,,,0.00,WUHU216HW,2013-03-07 17:12:00,
2013-03-07 12:17:00,45.3,33.8,30.47,North,0,10.9,10.9,64,0.00,,,0.00,WUHU216HW,2013-03-07 17:17:00,
2013-03-07 12:22:00,45.1,33.2,30.47,NNW,338,3.3,10.9,63,0.00,,,0.00,WUHU216HW,2013-03-07 17:22:00,
2013-03-07 12:27:00,45.3,33.4,30.47,NW,315,1.1,10.9,63,0.00,,,0.00,WUHU216HW,2013-03-07 17:27:00,
2013-03-07 12:32:00,45.6,33.7,30.47,North,0,3.5,6.2,63,0.00,,,0.00,WUHU216HW,2013-03-07 17:32:00,
2013-03-07 12:38:00,46.0,33.7,30.46,NNW,338,5.1,6.2,63,0.00,,,0.00,WUHU216HW,2013-03-07 17:38:00,
2013-03-07 12:43:00,46.0,33.3,30.46,NNW,338,6.7,6.7,61,0.00,,,0.00,WUHU216HW,2013-03-07 17:43:00,
2013-03-07 12:48:00,45.6,32.9,30.47,NW,315,7.1,7.1,61,0.00,,,0.00,WUHU216HW,2013-03-07 17:48:00,
2013-03-07 12:53:00,44.4,31.8,30.46,West,270,3.8,7.1,61,0.00,,,0.00,WUHU216HW,2013-03-07 17:53:00,
2013-03-07 12:58:00,42.9,31.1,30.46,NNW,338,0.0,7.1,63,0.00,,,0.00,WUHU216HW,2013-03-07 17:58:00,
2013-03-07 13:03:00,42.0,30.7,30.46,West,270,3.1,5.5,64,0.00,,,0.00,WUHU216HW,2013-03-07 18:03:00,
2013-03-07 13:08:00,41.7,30.7,30.47,NNW,338,4.2,4.2,65,0.00,,,0.00,WUHU216HW,2013-03-07 18:08:00,
2013-03-07 13:13:00,41.5,30.6,30.47,NW,315,2.9,5.3,65,0.00,,,0.00,WUHU216HW,2013-03-07 18:13:00,
2013-03-07 13:18:00,41.1,30.2,30.47,NNW,338,3.1,6.9,65,0.00,,,0.00,WUHU216HW,2013-03-07 18:18:00,
2013-03-07 13:23:00,40.8,29.9,30.47,NNW,338,2.4,6.9,65,0.00,,,0.00,WUHU216HW,2013-03-07 18:23:00,
2013-03-07 13:28:00,40.8,30.3,30.47,NW,315,4.9,5.1,66,0.00,,,0.00,WUHU216HW,2013-03-07 18:28:00,
2013-03-07 13:33:00,40.4,29.9,30.47,WNW,293,4.0,5.1,66,0.00,,,0.00,WUHU216HW,2013-03-07 18:33:00,
2013-03-07 13:38:00,40.1,29.5,30.47,NNW,338,3.5,4.9,66,0.00,,,0.00,WUHU216HW,2013-03-07 18:38:00,
2013-03-07 13:43:00,40.6,30.5,30.47,WNW,293,0.0,4.9,67,0.00,,,0.00,WUHU216HW,2013-03-07 18:43:00,
2013-03-07 13:48:00,40.8,30.6,30.47,NNW,338,2.2,4.9,67,0.00,,,0.00,WUHU216HW,2013-03-07 18:48:00,
2013-03-07 13:53:00,40.8,30.3,30.46,WNW,293,4.6,8.5,66,0.00,,,0.00,WUHU216HW,2013-03-07 18:53:00,
2013-03-07 13:58:00,41.0,30.1,30.47,NNW,338,6.2,8.5,65,0.00,,,0.00,WUHU216HW,2013-03-07 18:58:00,
2013-03-07 14:03:00,41.0,30.1,30.47,North,0,0.0,6.2,65,0.00,,,0.00,WUHU216HW,2013-03-07 19:03:00,
2013-03-07 14:05:00,41.1,30.6,30.47,North,0,9.6,9.6,66,0.00,,,0.00,WUHU216HW,2013-03-07 19:05:00,
2013-03-07 14:08:00,41.1,30.6,30.47,North,0,9.6,9.6,66,0.00,,,0.00,WUHU216HW,2013-03-07 19:08:00,
2013-03-07 14:13:00,41.1,30.6,30.47,North,0,9.6,9.6,66,0.00,,,0.00,WUHU216HW,2013-03-07 19:13:00,
2013-03-07 16:11:00,39.5,30.1,30.47,North,0,3.5,3.5,69,0.00,,,0.00,WUHU216HW,2013-03-07 21:11:00,
2013-03-07 16:16:00,39.9,30.5,30.47,NNW,338,2.9,3.5,69,0.00,,,0.00,WUHU216HW,2013-03-07 21:16:00,
2013-03-07 16:21:00,39.9,30.1,30.47,NNW,338,2.6,4.4,68,0.00,,,0.00,WUHU216HW,2013-03-07 21:21:00,
2013-03-07 16:26:00,40.2,30.5,30.47,North,0,4.0,4.4,68,0.00,,,0.00,WUHU216HW,2013-03-07 21:26:00,
2013-03-07 16:31:00,40.8,31.0,30.47,NNW,338,5.3,5.3,68,0.00,,,0.00,WUHU216HW,2013-03-07 21:31:00,
2013-03-07 16:36:00,41.1,31.0,30.47,NNW,338,2.9,5.3,67,0.00,,,0.00,WUHU216HW,2013-03-07 21:36:00,
2013-03-07 16:41:00,41.1,30.6,30.47,NNW,338,3.8,7.8,66,0.00,,,0.00,WUHU216HW,2013-03-07 21:41:00,
2013-03-07 16:46:00,41.5,30.6,30.47,North,0,3.3,7.8,65,0.00,,,0.00,WUHU216HW,2013-03-07 21:46:00,
2013-03-07 16:51:00,42.6,31.6,30.48,NW,315,2.2,5.3,65,0.00,,,0.00,WUHU216HW,2013-03-07 21:51:00,
2013-03-07 16:56:00,43.3,31.9,30.47,NNW,338,2.2,5.3,64,0.00,,,0.00,WUHU216HW,2013-03-07 21:56:00,
2013-03-07 17:01:00,43.8,32.0,30.48,NNW,338,2.9,2.9,63,0.00,,,0.00,WUHU216HW,2013-03-07 22:01:00,
2013-03-07 17:07:00,43.5,30.9,30.48,NNW,338,6.9,6.9,61,0.00,,,0.00,WUHU216HW,2013-03-07 22:07:00,
2013-03-07 17:12:00,42.9,30.3,30.48,NNW,338,4.2,6.9,61,0.00,,,0.00,WUHU216HW,2013-03-07 22:12:00,
2013-03-07 17:17:00,42.6,30.0,30.48,NNW,338,2.0,6.9,61,0.00,,,0.00,WUHU216HW,2013-03-07 22:17:00,
2013-03-07 17:22:00,42.6,30.4,30.48,NNW,338,2.4,6.0,62,0.00,,,0.00,WUHU216HW,2013-03-07 22:22:00,
2013-03-07 17:27:00,43.1,30.5,30.48,North,0,0.6,6.0,61,0.00,,,0.00,WUHU216HW,2013-03-07 22:27:00,
2013-03-07 17:32:00,43.3,31.1,30.48,NNW,338,2.4,3.3,62,0.00,,,0.00,WUHU216HW,2013-03-07 22:32:00,
2013-03-07 17:37:00,43.3,30.7,30.48,North,0,0.0,2.4,61,0.00,,,0.00,WUHU216HW,2013-03-07 22:37:00,
2013-03-07 17:42:00,43.3,30.3,30.49,North,0,1.7,3.8,60,0.00,,,0.00,WUHU216HW,2013-03-07 22:42:00,
2013-03-07 17:47:00,42.9,30.0,30.48,North,0,3.8,3.8,60,0.00,,,0.00,WUHU216HW,2013-03-07 22:47:00,
2013-03-07 17:52:00,42.4,29.5,30.48,NNW,338,3.8,3.8,60,0.00,,,0.00,WUHU216HW,2013-03-07 22:52:00,
2013-03-07 17:57:00,42.0,29.1,30.48,NNW,338,0.0,3.8,60,0.00,,,0.00,WUHU216HW,2013-03-07 22:57:00,
2013-03-07 18:02:00,41.5,28.7,30.48,North,0,0.0,3.8,60,0.00,,,0.00,WUHU216HW,2013-03-07 23:02:00,
2013-03-07 18:07:00,41.0,28.5,30.49,North,0,0.8,3.8,61,0.00,,,0.00,WUHU216HW,2013-03-07 23:07:00,
2013-03-07 18:12:00,40.6,28.2,30.49,NNW,338,2.6,3.8,61,0.00,,,0.00,WUHU216HW,2013-03-07 23:12:00,
2013-03-07 18:17:00,40.1,27.6,30.49,North,0,2.2,2.6,61,0.00,,,0.00,WUHU216HW,2013-03-07 23:17:00,
2013-03-07 18:22:00,39.2,27.1,30.49,NE,45,0.0,2.2,62,0.00,,,0.00,WUHU216HW,2013-03-07 23:22:00,
2013-03-07 18:27:00,38.8,27.2,30.49,North,0,0.8,0.8,63,0.00,,,0.00,WUHU216HW,2013-03-07 23:27:00,
2013-03-07 18:32:00,38.3,26.7,30.49,North,0,2.9,2.9,63,0.00,,,0.00,WUHU216HW,2013-03-07 23:32:00,
2013-03-07 18:37:00,37.7,26.6,30.49,NE,45,0.0,2.9,64,0.00,,,0.00,WUHU216HW,2013-03-07 23:37:00,
2013-03-07 18:42:00,37.2,26.1,30.49,NNW,338,4.6,4.6,64,0.00,,,0.00,WUHU216HW,2013-03-07 23:42:00,
2013-03-07 18:47:00,36.6,26.0,30.49,NNE,23,0.0,4.6,65,0.00,,,0.00,WUHU216HW,2013-03-07 23:47:00,
2013-03-07 18:52:00,36.3,25.6,30.49,NE,45,0.0,4.6,65,0.00,,,0.00,WUHU216HW,2013-03-07 23:52:00,
2013-03-07 18:57:00,36.1,25.8,30.49,NE,45,0.0,0.0,66,0.00,,,0.00,WUHU216HW,2013-03-07 23:57:00,
2013-03-07 19:02:00,35.4,25.1,30.49,NE,45,0.0,0.0,66,0.00,,,0.00,WUHU216HW,2013-03-08 00:02:00,
2013-03-07 19:07:00,35.2,25.3,30.49,North,0,0.0,0.0,67,0.00,,,0.00,WUHU216HW,2013-03-08 00:07:00,
2013-03-07 19:12:00,35.0,25.1,30.49,NNE,23,0.0,0.0,67,0.00,,,0.00,WUHU216HW,2013-03-08 00:12:00,
2013-03-07 19:17:00,34.7,24.8,30.49,NNE,23,0.0,0.0,67,0.00,,,0.00,WUHU216HW,2013-03-08 00:17:00,
2013-03-07 19:22:00,34.7,24.8,30.49,NNE,23,0.0,0.0,67,0.00,,,0.00,WUHU216HW,2013-03-08 00:22:00,
2013-03-07 19:27:00,34.1,24.2,30.49,NNE,23,0.0,0.0,67,0.00,,,0.00,WUHU216HW,2013-03-08 00:27:00,
2013-03-07 19:32:00,34.1,24.2,30.49,NNE,23,0.0,0.0,67,0.00,,,0.00,WUHU216HW,2013-03-08 00:32:00,
2013-03-07 19:37:00,34.1,24.2,30.49,NNE,23,0.0,0.0,67,0.00,,,0.00,WUHU216HW,2013-03-08 00:37:00,
2013-03-07 19:49:00,32.7,24.0,30.49,NE,45,0.0,0.0,70,0.00,,,0.00,WUHU216HW,2013-03-08 00:49:00,
2013-03-07 19:54:00,32.5,23.8,30.50,NE,45,0.0,0.0,70,0.00,,,0.00,WUHU216HW,2013-03-08 00:54:00,
2013-03-07 19:59:00,32.5,24.1,30.49,NE,45,0.0,0.0,71,0.00,,,0.00,WUHU216HW,2013-03-08 00:59:00,
2013-03-07 20:04:00,32.5,24.1,30.50,NE,45,0.0,0.0,71,0.00,,,0.00,WUHU216HW,2013-03-08 01:04:00,
2013-03-07 20:09:00,32.5,24.1,30.50,NE,45,0.0,0.0,71,0.00,,,0.00,WUHU216HW,2013-03-08 01:09:00,
2013-03-07 20:14:00,32.1,23.8,30.50,NE,45,0.0,0.0,71,0.00,,,0.00,WUHU216HW,2013-03-08 01:14:00,
2013-03-07 20:19:00,32.1,23.8,30.50,NE,45,0.0,0.0,71,0.00,,,0.00,WUHU216HW,2013-03-08 01:19:00,
2013-03-07 20:24:00,32.1,23.8,30.50,NE,45,0.0,0.0,71,0.00,,,0.00,WUHU216HW,2013-03-08 01:24:00,